Terminal Aerodrome Forecast
Issued by NWS Bismarck, ND

Home | Current Version | Previous Version | Graphics & Text | Print | Product List | Glossary On
Versions: 1 2 3 4 5 6 7 8 9 10 11 12 13 14 15 16
224
FTUS43 KBIS 080851 AAA
TAFBIS
TAF AMD
KBIS 080851Z 0809/0906 33019G27KT P6SM SCT035
     FM082300 33013KT P6SM BKN200
     FM090500 33005KT P6SM BKN060=

USA.gov is the U.S. government's official web portal to all federal, state and local government web resources and services.